createdAt,value
2023-03-02T00:02:22.354Z,2.53
2023-03-02T00:05:14.674Z,2.60
2023-03-02T00:08:02.529Z,2.50
2023-03-02T00:10:48.906Z,2.83
2023-03-02T00:13:38.212Z,2.77
2023-03-02T00:16:25.039Z,3.07
2023-03-02T00:19:13.178Z,3.13
2023-03-02T00:21:59.573Z,2.70
2023-03-02T00:24:45.999Z,2.60
2023-03-02T00:27:32.389Z,2.87
2023-03-02T00:30:18.903Z,2.70
2023-03-02T00:33:05.406Z,2.83
2023-03-02T00:35:53.211Z,3.03
2023-03-02T00:38:40.038Z,3.40
2023-03-02T00:41:26.590Z,3.50
2023-03-02T00:44:17.766Z,3.30
2023-03-02T00:47:04.606Z,3.00
2023-03-02T00:49:51.592Z,3.00
2023-03-02T00:52:39.386Z,3.37
2023-03-02T00:55:25.899Z,3.40
2023-03-02T00:58:12.220Z,3.97
2023-03-02T01:00:59.342Z,3.13
2023-03-02T01:03:45.782Z,3.13
2023-03-02T01:06:32.610Z,3.50
2023-03-02T01:09:20.623Z,3.00
2023-03-02T01:12:09.420Z,3.33
2023-03-02T01:14:55.880Z,3.40
2023-03-02T01:17:43.986Z,3.80
2023-03-02T01:20:30.483Z,3.43
2023-03-02T01:23:17.145Z,3.63
2023-03-02T01:26:05.285Z,3.23
2023-03-02T01:28:55.341Z,3.27
2023-03-02T01:31:42.325Z,3.20
2023-03-02T01:34:28.943Z,3.70
2023-03-02T01:37:15.348Z,3.80
2023-03-02T01:40:06.532Z,3.63
2023-03-02T01:42:58.692Z,3.90
2023-03-02T01:45:53.763Z,4.10
2023-03-02T01:48:46.153Z,4.30
2023-03-02T01:51:35.923Z,4.43
2023-03-02T01:54:24.310Z,4.20
2023-03-02T01:57:12.040Z,4.47
2023-03-02T02:00:06.999Z,4.57
2023-03-02T02:02:55.977Z,4.53
2023-03-02T02:05:45.306Z,4.90
2023-03-02T02:08:32.202Z,5.20
2023-03-02T02:11:19.071Z,5.23
2023-03-02T02:14:06.021Z,6.03
2023-03-02T02:16:54.144Z,5.83
2023-03-02T02:19:54.557Z,5.77
2023-03-02T02:22:50.840Z,6.60
2023-03-02T02:25:46.582Z,6.70
2023-03-02T02:28:38.423Z,6.40
2023-03-02T02:31:30.912Z,6.63
2023-03-02T02:34:22.627Z,6.77
2023-03-02T02:37:15.498Z,6.63
2023-03-02T02:40:07.236Z,6.80
2023-03-02T02:42:54.808Z,6.57
2023-03-02T02:45:43.250Z,7.43
2023-03-02T02:48:32.045Z,7.47
2023-03-02T02:51:23.934Z,8.43
2023-03-02T02:54:16.226Z,8.80
2023-03-02T02:57:04.967Z,8.30
2023-03-02T02:59:54.657Z,8.80
2023-03-02T03:02:46.552Z,8.90
2023-03-02T03:05:32.882Z,9.40
2023-03-02T03:08:54.184Z,9.07
2023-03-02T03:11:44.431Z,9.47
2023-03-02T03:14:35.327Z,8.57
2023-03-02T03:17:21.719Z,8.53
2023-03-02T03:20:11.158Z,10.13
2023-03-02T03:22:59.392Z,9.47
2023-03-02T03:25:45.981Z,9.33
2023-03-02T03:28:32.452Z,8.60
2023-03-02T03:31:18.782Z,9.80
2023-03-02T03:34:05.966Z,9.40
2023-03-02T03:36:54.078Z,9.10
2023-03-02T03:39:40.761Z,9.30
2023-03-02T03:42:28.070Z,8.93
2023-03-02T03:45:14.725Z,8.93
2023-03-02T03:48:01.157Z,9.03
2023-03-02T03:50:47.586Z,9.23
2023-03-02T03:53:36.004Z,8.93
2023-03-02T03:56:22.637Z,9.83
2023-03-02T03:59:11.394Z,9.13
2023-03-02T04:22:29.588Z,11.30
2023-03-02T04:25:19.638Z,12.33
2023-03-02T04:28:06.486Z,12.13
2023-03-02T04:30:53.763Z,11.83
2023-03-02T04:33:40.346Z,12.70
2023-03-02T04:36:27.478Z,12.43
2023-03-02T04:39:17.443Z,12.60
2023-03-02T04:42:04.123Z,12.23
2023-03-02T04:44:50.583Z,12.93
2023-03-02T04:47:37.172Z,12.80
2023-03-02T04:50:24.056Z,12.83
2023-03-02T04:53:12.057Z,11.93
2023-03-02T04:55:59.993Z,12.60
2023-03-02T04:58:46.797Z,12.57
2023-03-02T05:01:33.454Z,11.93
2023-03-02T05:04:20.572Z,12.70
2023-03-02T05:07:07.472Z,12.43
2023-03-02T05:09:53.913Z,12.93
2023-03-02T05:12:55.204Z,13.20
2023-03-02T05:15:43.555Z,12.27
2023-03-02T05:18:31.223Z,11.73
2023-03-02T05:21:18.633Z,12.90
2023-03-02T05:24:05.285Z,12.97
2023-03-02T05:26:51.985Z,12.03
2023-03-02T05:29:39.725Z,10.77
2023-03-02T05:32:27.143Z,11.60
2023-03-02T05:35:14.594Z,11.67
2023-03-02T05:38:01.124Z,12.00
2023-03-02T05:40:48.334Z,13.50
2023-03-02T05:43:36.072Z,13.63
2023-03-02T05:46:25.846Z,13.17
2023-03-02T05:49:13.094Z,12.17
2023-03-02T05:51:59.361Z,12.40
2023-03-02T05:54:45.916Z,12.27
2023-03-02T05:57:32.349Z,13.40
2023-03-02T06:00:20.197Z,12.53
2023-03-02T06:03:08.645Z,12.23
2023-03-02T06:05:55.041Z,10.97
2023-03-02T06:08:41.452Z,12.47
2023-03-02T06:11:30.236Z,11.47
2023-03-02T06:14:16.642Z,11.90
2023-03-02T06:17:03.406Z,13.37
2023-03-02T06:19:51.426Z,12.27
2023-03-02T06:22:41.208Z,11.83
2023-03-02T06:25:27.949Z,14.00
2023-03-02T06:28:14.311Z,13.93
2023-03-02T06:31:00.751Z,12.13
2023-03-02T06:33:47.249Z,11.60
2023-03-02T06:36:35.238Z,12.47
2023-03-02T06:39:22.678Z,11.10
2023-03-02T06:42:09.040Z,11.90
2023-03-02T06:44:55.798Z,13.77
2023-03-02T06:47:42.536Z,14.63
2023-03-02T06:50:29.615Z,12.93
2023-03-02T06:53:20.283Z,11.73
2023-03-02T06:56:07.858Z,10.50
2023-03-02T06:58:54.891Z,11.23
2023-03-02T07:01:42.042Z,11.07
2023-03-02T07:04:29.542Z,10.20
2023-03-02T07:07:16.037Z,10.63
2023-03-02T07:10:04.925Z,10.77
2023-03-02T07:12:52.741Z,12.23
2023-03-02T07:15:40.643Z,9.67
2023-03-02T07:18:27.238Z,9.37
2023-03-02T07:21:13.662Z,10.27
2023-03-02T07:24:00.084Z,12.07
2023-03-02T07:26:47.685Z,13.00
2023-03-02T07:29:34.503Z,60.67
2023-03-02T07:32:20.947Z,39.07
2023-03-02T07:35:08.565Z,20.63
2023-03-02T07:37:55.723Z,13.30
2023-03-02T07:40:42.367Z,21.73
2023-03-02T07:43:30.890Z,21.00
2023-03-02T07:46:17.258Z,11.43
2023-03-02T07:49:03.830Z,10.40
2023-03-02T07:51:50.433Z,10.50
2023-03-02T07:54:36.813Z,23.37
2023-03-02T07:57:23.256Z,61.97
2023-03-02T08:00:13.029Z,13.30
2023-03-02T08:02:59.670Z,10.87
2023-03-02T08:05:46.227Z,11.80
2023-03-02T08:08:32.741Z,11.60
2023-03-02T08:11:19.991Z,11.00
2023-03-02T08:14:06.668Z,11.80
2023-03-02T08:16:54.474Z,11.23
2023-03-02T08:19:40.886Z,12.23
2023-03-02T08:22:27.345Z,11.47
2023-03-02T08:25:14.296Z,13.33
2023-03-02T08:28:00.628Z,11.60
2023-03-02T08:30:47.071Z,10.70
2023-03-02T08:33:35.296Z,10.83
2023-03-02T08:36:22.782Z,10.23
2023-03-02T08:39:09.755Z,10.53
2023-03-02T08:41:56.252Z,11.57
2023-03-02T08:44:42.923Z,10.80
2023-03-02T08:47:29.207Z,11.73
2023-03-02T08:50:17.253Z,10.00
2023-03-02T08:53:03.891Z,10.40
2023-03-02T08:55:50.451Z,10.40
2023-03-02T08:58:37.115Z,10.60
2023-03-02T09:01:26.122Z,10.47
2023-03-02T09:04:12.686Z,11.47
2023-03-02T09:07:00.786Z,9.10
2023-03-02T09:09:47.483Z,9.63
2023-03-02T09:12:33.933Z,9.73
2023-03-02T09:15:20.478Z,9.50
2023-03-02T09:18:07.010Z,10.27
2023-03-02T09:20:54.389Z,9.53
2023-03-02T09:23:42.799Z,8.93
2023-03-02T09:26:29.567Z,10.43
2023-03-02T09:29:19.557Z,10.00
2023-03-02T09:32:06.809Z,9.40
2023-03-02T09:34:53.626Z,8.53
2023-03-02T09:37:40.065Z,10.13
2023-03-02T09:40:30.230Z,9.80
2023-03-02T09:43:28.742Z,8.70
2023-03-02T09:46:23.690Z,8.60
2023-03-02T09:49:22.441Z,9.60
2023-03-02T09:52:17.621Z,10.40
2023-03-02T09:55:15.169Z,9.57
2023-03-02T09:58:05.919Z,10.30
2023-03-02T10:00:52.979Z,9.67
2023-03-02T10:03:49.103Z,9.97
2023-03-02T10:06:35.948Z,10.40
2023-03-02T10:09:22.714Z,9.07
2023-03-02T10:12:25.875Z,10.87
2023-03-02T10:15:18.122Z,10.20
2023-03-02T10:18:16.460Z,9.67
2023-03-02T10:21:07.505Z,9.97
2023-03-02T10:24:00.021Z,10.93
2023-03-02T10:26:48.568Z,9.57
2023-03-02T10:29:45.732Z,9.00
2023-03-02T10:32:37.062Z,9.37
2023-03-02T10:35:26.708Z,9.73
2023-03-02T10:38:15.103Z,9.63
2023-03-02T10:41:04.638Z,9.60
2023-03-02T10:43:55.674Z,9.23
2023-03-02T10:46:43.043Z,8.80
2023-03-02T10:49:32.977Z,9.53
2023-03-02T10:52:21.950Z,8.87
2023-03-02T10:55:16.022Z,8.40
2023-03-02T10:58:05.846Z,8.03
2023-03-02T11:01:01.488Z,8.90
2023-03-02T11:03:57.565Z,8.93
2023-03-02T11:06:45.656Z,8.77
2023-03-02T11:09:32.383Z,9.03
2023-03-02T11:12:19.142Z,8.27
2023-03-02T11:15:23.621Z,8.87
2023-03-02T11:18:23.102Z,8.80
2023-03-02T11:21:12.559Z,9.33
2023-03-02T11:24:10.509Z,9.63
2023-03-02T11:27:02.281Z,9.40
2023-03-02T11:29:53.275Z,8.57
2023-03-02T11:32:46.275Z,9.17
2023-03-02T11:35:37.197Z,9.50
2023-03-02T11:38:27.556Z,9.43
2023-03-02T11:41:27.405Z,8.47
2023-03-02T11:44:18.541Z,8.87
2023-03-02T11:47:04.968Z,8.20
2023-03-02T11:49:56.736Z,8.17
2023-03-02T11:52:47.468Z,8.57
2023-03-02T11:55:41.614Z,8.80
2023-03-02T11:58:31.428Z,8.63
2023-03-02T12:01:23.284Z,7.87
2023-03-02T12:04:12.027Z,8.30
2023-03-02T12:06:59.019Z,8.57
2023-03-02T12:09:45.678Z,8.60
2023-03-02T12:12:43.093Z,8.20
2023-03-02T12:15:40.454Z,8.50
2023-03-02T12:18:44.151Z,9.70
2023-03-02T12:21:41.641Z,9.50
2023-03-02T12:24:30.224Z,9.27
2023-03-02T12:27:28.058Z,8.87
2023-03-02T12:30:26.789Z,8.03
2023-03-02T12:33:22.379Z,8.23
2023-03-02T12:36:15.199Z,9.03
2023-03-02T12:39:22.031Z,8.37
2023-03-02T12:42:40.167Z,7.97
2023-03-02T12:45:36.391Z,8.63
2023-03-02T12:48:31.627Z,9.00
2023-03-02T12:51:22.334Z,8.73
2023-03-02T12:54:14.597Z,9.13
2023-03-02T12:57:08.864Z,8.90
2023-03-02T12:59:58.097Z,9.30
2023-03-02T13:02:48.745Z,9.13
2023-03-02T13:05:37.862Z,9.10
2023-03-02T13:08:28.756Z,9.93
2023-03-02T13:11:22.953Z,8.97
2023-03-02T13:14:20.952Z,9.90
2023-03-02T13:17:07.628Z,9.07
2023-03-02T13:19:54.856Z,10.10
2023-03-02T13:22:43.095Z,10.03
2023-03-02T13:25:31.558Z,9.03
2023-03-02T13:28:28.621Z,8.77
2023-03-02T13:31:22.312Z,9.63
2023-03-02T13:34:22.409Z,9.60
2023-03-02T13:37:20.975Z,9.27
2023-03-02T13:40:35.174Z,9.73
2023-03-02T13:43:34.533Z,10.67
2023-03-02T13:46:35.304Z,8.93
2023-03-02T13:49:30.304Z,8.27
2023-03-02T13:52:23.636Z,8.67
2023-03-02T13:55:16.197Z,9.00
2023-03-02T13:58:03.537Z,9.07
2023-03-02T14:00:51.623Z,9.13
2023-03-02T14:03:38.328Z,9.17
2023-03-02T14:06:24.638Z,9.77
2023-03-02T14:09:11.366Z,10.00
2023-03-02T14:11:59.003Z,9.70
2023-03-02T14:14:45.730Z,9.43
2023-03-02T14:17:32.704Z,8.57
2023-03-02T14:20:21.109Z,8.23
2023-03-02T14:23:07.973Z,9.23
2023-03-02T14:25:55.984Z,9.00
2023-03-02T14:28:44.863Z,9.73
2023-03-02T14:31:32.685Z,9.20
2023-03-02T14:34:19.477Z,9.70
2023-03-02T14:37:08.514Z,9.80
2023-03-02T14:39:55.940Z,8.60
2023-03-02T14:42:42.544Z,9.53
2023-03-02T14:45:30.949Z,9.63
2023-03-02T14:48:17.623Z,9.37
2023-03-02T14:51:04.758Z,9.60
2023-03-02T14:53:53.741Z,9.27
2023-03-02T14:56:40.848Z,9.60
2023-03-02T14:59:27.519Z,9.43
2023-03-02T15:02:24.754Z,9.63
2023-03-02T15:05:12.361Z,9.70
2023-03-02T15:07:59.041Z,9.73
2023-03-02T15:10:46.909Z,10.27
2023-03-02T15:13:33.966Z,9.40
2023-03-02T15:16:20.899Z,9.70
2023-03-02T15:19:09.565Z,9.33
2023-03-02T15:21:57.080Z,9.93
2023-03-02T15:24:43.614Z,9.90
2023-03-02T15:27:30.007Z,9.60
2023-03-02T15:30:16.680Z,9.60
2023-03-02T15:33:03.186Z,9.13
2023-03-02T15:35:55.497Z,9.00
2023-03-02T15:38:42.421Z,9.53
2023-03-02T15:41:29.154Z,8.90
2023-03-02T15:44:21.678Z,9.03
2023-03-02T15:47:08.446Z,9.63
2023-03-02T15:49:54.823Z,9.37
2023-03-02T15:52:42.806Z,9.33
2023-03-02T15:55:29.637Z,8.67
2023-03-02T15:58:17.778Z,8.47
2023-03-02T16:01:08.819Z,9.87
2023-03-02T16:03:55.700Z,8.97
2023-03-02T16:06:42.222Z,9.33
2023-03-02T16:09:31.020Z,10.63
2023-03-02T16:12:18.678Z,10.80
2023-03-02T16:15:05.857Z,8.87
2023-03-02T16:17:52.313Z,9.20
2023-03-02T16:20:40.090Z,10.17
2023-03-02T16:23:26.449Z,9.70
2023-03-02T16:26:16.039Z,9.90
2023-03-02T16:29:03.286Z,9.87
2023-03-02T16:31:50.124Z,9.93
2023-03-02T16:34:37.367Z,11.83
2023-03-02T16:37:24.077Z,11.47
2023-03-02T16:40:12.413Z,12.23
2023-03-02T16:43:00.466Z,10.77
2023-03-02T16:45:47.695Z,10.83
2023-03-02T16:48:34.774Z,10.90
2023-03-02T16:51:22.164Z,9.87
2023-03-02T16:54:09.000Z,10.20
2023-03-02T16:56:55.409Z,11.20
2023-03-02T16:59:43.300Z,12.17
2023-03-02T17:02:30.433Z,10.23
2023-03-02T17:05:19.481Z,10.90
2023-03-02T17:08:10.138Z,11.60
2023-03-02T17:10:56.720Z,10.73
2023-03-02T17:13:43.620Z,11.60
2023-03-02T17:16:31.850Z,11.37
2023-03-02T17:19:19.026Z,11.77
2023-03-02T17:22:05.964Z,12.60
2023-03-02T17:24:52.419Z,11.63
2023-03-02T17:27:39.928Z,11.93
2023-03-02T17:30:26.785Z,12.03
2023-03-02T17:33:14.467Z,11.90
2023-03-02T17:36:04.872Z,12.83
2023-03-02T17:38:51.930Z,11.63
2023-03-02T17:41:39.583Z,13.37
2023-03-02T17:44:26.066Z,12.10
2023-03-02T17:47:14.945Z,11.80
2023-03-02T17:50:05.001Z,11.60
2023-03-02T17:52:52.195Z,11.73
2023-03-02T17:55:39.002Z,12.00
2023-03-02T17:58:30.613Z,12.80
2023-03-02T18:01:23.001Z,12.17
2023-03-02T18:04:09.581Z,11.60
2023-03-02T18:06:57.800Z,11.10
2023-03-02T18:09:44.562Z,13.13
2023-03-02T18:12:31.134Z,12.63
2023-03-02T18:15:17.650Z,11.33
2023-03-02T18:18:04.250Z,11.00
2023-03-02T18:20:50.695Z,10.73
2023-03-02T18:23:39.807Z,11.20
2023-03-02T18:26:26.474Z,11.03
2023-03-02T18:29:12.838Z,10.23
2023-03-02T18:31:59.454Z,10.67
2023-03-02T18:34:46.501Z,10.97
2023-03-02T18:37:34.002Z,11.23
2023-03-02T18:40:22.484Z,10.87
2023-03-02T18:43:08.908Z,9.80
2023-03-02T18:45:56.847Z,8.73
2023-03-02T18:48:43.172Z,9.43
2023-03-02T18:51:29.593Z,9.53
2023-03-02T18:54:16.090Z,9.10
2023-03-02T18:57:03.759Z,10.13
2023-03-02T18:59:50.454Z,9.93
2023-03-02T19:02:36.964Z,10.37
2023-03-02T19:05:26.903Z,9.90
2023-03-02T19:08:13.639Z,8.83
2023-03-02T19:10:59.982Z,7.93
2023-03-02T19:13:48.182Z,10.33
2023-03-02T19:16:36.849Z,8.23
2023-03-02T19:19:23.494Z,10.93
2023-03-02T19:22:10.098Z,8.13
2023-03-02T19:24:57.072Z,8.37
2023-03-02T19:27:43.881Z,9.13
2023-03-02T19:30:32.351Z,9.70
2023-03-02T19:33:18.862Z,8.93
2023-03-02T19:36:06.362Z,8.80
2023-03-02T19:38:53.085Z,10.10
2023-03-02T19:41:39.463Z,11.03
2023-03-02T19:44:26.259Z,8.60
2023-03-02T19:47:14.198Z,8.93
2023-03-02T19:50:00.887Z,8.20
2023-03-02T19:52:47.622Z,8.53
2023-03-02T19:55:34.862Z,8.43
2023-03-02T19:58:23.696Z,8.10
2023-03-02T20:01:11.154Z,8.80
2023-03-02T20:04:00.117Z,8.07
2023-03-02T20:06:46.951Z,8.50
2023-03-02T20:09:33.751Z,7.17
2023-03-02T20:12:20.909Z,7.67
2023-03-02T20:15:08.666Z,8.67
2023-03-02T20:17:55.463Z,7.90
2023-03-02T20:20:45.174Z,11.00
2023-03-02T20:23:31.797Z,8.87
2023-03-02T20:26:18.158Z,9.43
2023-03-02T20:29:05.688Z,10.67
2023-03-02T20:31:52.398Z,9.13
2023-03-02T20:34:41.368Z,8.17
2023-03-02T20:37:29.389Z,6.80
2023-03-02T20:40:17.501Z,7.27
2023-03-02T20:43:05.303Z,7.40
2023-03-02T20:45:52.128Z,8.23
2023-03-02T20:48:38.936Z,7.23
2023-03-02T20:51:25.843Z,8.13
2023-03-02T20:54:13.799Z,10.23
2023-03-02T20:57:00.657Z,8.17
2023-03-02T20:59:47.373Z,6.70
2023-03-02T21:02:33.766Z,7.10
2023-03-02T21:05:21.809Z,7.93
2023-03-02T21:08:10.227Z,7.93
2023-03-02T21:10:58.225Z,7.47
2023-03-02T21:13:46.401Z,7.80
2023-03-02T21:16:37.866Z,8.57
2023-03-02T21:19:25.605Z,8.27
2023-03-02T21:22:11.975Z,8.60
2023-03-02T21:24:58.529Z,9.13
2023-03-02T21:27:46.537Z,8.33
2023-03-02T21:30:35.004Z,8.43
2023-03-02T21:33:21.534Z,7.43
2023-03-02T21:36:08.919Z,7.90
2023-03-02T21:38:55.996Z,7.83
2023-03-02T21:41:42.395Z,8.23
2023-03-02T21:44:30.089Z,8.23
2023-03-02T21:47:16.932Z,8.37
2023-03-02T21:50:05.675Z,7.90
2023-03-02T21:52:52.065Z,7.40
2023-03-02T21:55:39.032Z,8.30
2023-03-02T21:58:25.758Z,7.97
2023-03-02T22:01:14.986Z,8.30
2023-03-02T22:04:02.062Z,8.93
2023-03-02T22:06:48.889Z,7.63
2023-03-02T22:09:35.299Z,8.27
2023-03-02T22:12:24.221Z,8.40
2023-03-02T22:15:15.501Z,8.80
2023-03-02T22:18:03.528Z,9.10
2023-03-02T22:20:51.801Z,9.23
2023-03-02T22:23:38.372Z,8.40
2023-03-02T22:26:24.837Z,9.70
2023-03-02T22:29:16.120Z,8.83
2023-03-02T22:32:16.460Z,10.47
2023-03-02T22:35:19.286Z,9.53
2023-03-02T22:38:13.733Z,8.43
2023-03-02T22:41:00.413Z,9.40
2023-03-02T22:43:49.481Z,10.40
2023-03-02T22:46:36.471Z,11.03
2023-03-02T22:49:23.264Z,9.50
2023-03-02T22:52:17.416Z,10.10
2023-03-02T22:55:04.223Z,10.23
2023-03-02T22:57:50.888Z,9.80
2023-03-02T23:00:40.581Z,8.83
2023-03-02T23:03:37.655Z,8.87
2023-03-02T23:06:28.002Z,9.53
2023-03-02T23:09:18.903Z,10.67
2023-03-02T23:12:14.618Z,8.77
2023-03-02T23:15:00.992Z,9.20
2023-03-02T23:17:47.345Z,9.03
2023-03-02T23:20:35.264Z,9.30
2023-03-02T23:23:23.413Z,9.47
2023-03-02T23:26:11.232Z,10.43
2023-03-02T23:28:57.611Z,9.77
2023-03-02T23:31:44.858Z,9.57
2023-03-02T23:34:32.014Z,10.90
2023-03-02T23:37:18.362Z,11.03
2023-03-02T23:40:05.508Z,10.73
2023-03-02T23:42:54.284Z,10.87
2023-03-02T23:45:40.749Z,10.40
2023-03-02T23:48:27.606Z,9.87
2023-03-02T23:51:14.129Z,11.37
2023-03-02T23:54:01.794Z,9.33
2023-03-02T23:56:49.630Z,10.03
2023-03-02T23:59:37.475Z,10.97
